createdAt,value
2019-05-07T00:03:38.867Z,1014.83
2019-05-07T00:18:39.032Z,1014.81
2019-05-07T00:33:39.238Z,1014.85
2019-05-07T00:48:41.709Z,1014.91
2019-05-07T01:03:42.503Z,1014.88
2019-05-07T01:18:43.328Z,1014.89
2019-05-07T01:33:43.527Z,1014.90
2019-05-07T01:48:43.753Z,1014.89
2019-05-07T02:03:43.929Z,1014.86
2019-05-07T02:18:44.161Z,1014.89
2019-05-07T02:33:44.366Z,1014.90
2019-05-07T02:48:44.545Z,1014.88
2019-05-07T03:03:45.091Z,1014.97
2019-05-07T03:18:44.873Z,1014.90
2019-05-07T03:33:46.979Z,1014.92
2019-05-07T03:48:48.278Z,1014.99
2019-05-07T04:03:48.466Z,1015.12
2019-05-07T04:18:48.663Z,1015.18
2019-05-07T04:33:48.981Z,1015.35
2019-05-07T04:48:49.089Z,1015.37
2019-05-07T05:03:49.272Z,1015.49
2019-05-07T05:18:51.621Z,1015.61
2019-05-07T05:33:52.736Z,1015.73
2019-05-07T05:48:53.498Z,1015.84
2019-05-07T06:03:53.702Z,1015.84
2019-05-07T06:18:54.355Z,1015.96
2019-05-07T06:33:54.523Z,1015.99
2019-05-07T06:48:54.771Z,1016.04
2019-05-07T07:03:54.849Z,1016.08
2019-05-07T07:18:55.894Z,1016.05
2019-05-07T07:33:56.374Z,1016.06
2019-05-07T07:49:09.924Z,1016.01
2019-05-07T08:04:02.983Z,1016.01
2019-05-07T08:19:17.568Z,1015.91
2019-05-07T08:34:08.608Z,1015.86
2019-05-07T08:49:08.882Z,1015.90
2019-05-07T09:04:09.070Z,1015.69
2019-05-07T09:19:09.251Z,1015.72
2019-05-07T09:34:09.335Z,1015.68
2019-05-07T09:49:09.581Z,1015.65
2019-05-07T10:04:09.812Z,1015.57
2019-05-07T10:19:09.980Z,1015.51
2019-05-07T10:34:12.221Z,1015.36
2019-05-07T10:49:12.430Z,1015.49
2019-05-07T11:04:12.874Z,1015.34
2019-05-07T11:19:12.890Z,1015.26
2019-05-07T11:34:13.881Z,1015.15
2019-05-07T11:49:14.004Z,1014.90
2019-05-07T12:04:14.212Z,1014.98
2019-05-07T12:19:16.570Z,1014.91
2019-05-07T12:34:16.459Z,1014.78
2019-05-07T12:49:16.797Z,1014.85
2019-05-07T13:04:16.974Z,1014.72
2019-05-07T13:19:17.212Z,1014.58
2019-05-07T13:34:17.507Z,1014.55
2019-05-07T13:49:17.637Z,1014.48
2019-05-07T14:04:17.832Z,1014.35
2019-05-07T14:19:17.921Z,1014.17
2019-05-07T14:34:18.239Z,1014.16
2019-05-07T14:49:18.351Z,1014.10
2019-05-07T15:04:18.543Z,1014.02
2019-05-07T15:19:18.762Z,1013.99
2019-05-07T15:34:18.889Z,1013.93
2019-05-07T15:49:21.539Z,1013.88
2019-05-07T16:04:23.206Z,1013.78
2019-05-07T16:19:25.888Z,1013.68
2019-05-07T16:34:25.968Z,1013.76
2019-05-07T16:49:26.077Z,1013.68
2019-05-07T17:04:26.223Z,1013.70
2019-05-07T17:19:26.447Z,1013.60
2019-05-07T17:34:26.603Z,1013.59
2019-05-07T17:49:26.707Z,1013.60
2019-05-07T18:04:26.849Z,1013.56
2019-05-07T18:19:27.069Z,1013.56
2019-05-07T18:34:27.274Z,1013.53
2019-05-07T18:49:27.483Z,1013.62
2019-05-07T19:04:30.123Z,1013.64
2019-05-07T19:19:32.802Z,1013.71
2019-05-07T19:34:33.016Z,1013.71
2019-05-07T19:49:33.216Z,1013.73
2019-05-07T20:04:35.116Z,1013.67
2019-05-07T20:19:35.583Z,1013.62
2019-05-07T20:34:35.894Z,1013.46
2019-05-07T20:49:36.112Z,1013.49
2019-05-07T21:04:36.428Z,1013.50
2019-05-07T21:19:36.740Z,1013.38
2019-05-07T21:34:37.014Z,1013.32
2019-05-07T21:49:37.127Z,1013.38
2019-05-07T22:04:37.437Z,1013.29
2019-05-07T22:19:37.508Z,1013.28
2019-05-07T22:34:37.797Z,1013.20
2019-05-07T22:49:38.061Z,1013.03
2019-05-07T23:04:38.364Z,1012.82
2019-05-07T23:19:38.491Z,1012.78
2019-05-07T23:34:38.666Z,1012.67
2019-05-07T23:49:38.812Z,1012.64
